createdAt,value
2023-01-25T00:00:06.647Z,100369.97
2023-01-25T00:02:33.637Z,100382.69
2023-01-25T00:05:00.608Z,100378.22
2023-01-25T00:07:27.567Z,100375.19
2023-01-25T00:09:54.542Z,100373.69
2023-01-25T00:12:21.473Z,100365.63
2023-01-25T00:14:48.356Z,100366.66
2023-01-25T00:17:15.352Z,100373.78
2023-01-25T00:19:42.244Z,100371.22
2023-01-25T00:22:09.318Z,100370.09
2023-01-25T00:24:36.219Z,100365.69
2023-01-25T00:27:04.044Z,100363.81
2023-01-25T00:29:30.937Z,100372.44
2023-01-25T00:31:57.931Z,100365.63
2023-01-25T00:34:24.914Z,100370.81
2023-01-25T00:36:57.303Z,100370.81
2023-01-25T00:39:26.451Z,100366.47
2023-01-25T00:41:53.877Z,100336.41
2023-01-25T00:44:20.909Z,100364.63
2023-01-25T00:46:48.314Z,100373.13
2023-01-25T00:49:27.092Z,100364.34
2023-01-25T00:51:56.122Z,100346.13
2023-01-25T00:54:23.286Z,100344.78
2023-01-25T00:56:53.346Z,100345.72
2023-01-25T00:59:20.660Z,100355.53
2023-01-25T01:01:47.596Z,100349.72
2023-01-25T01:04:15.215Z,100362.66
2023-01-25T01:06:42.995Z,100358.84
2023-01-25T01:09:17.886Z,100349.53
2023-01-25T01:11:45.100Z,100308.88
2023-01-25T01:14:13.060Z,100320.06
2023-01-25T01:16:40.071Z,100317.28
2023-01-25T01:19:07.295Z,100312.25
2023-01-25T01:21:34.203Z,100312.47
2023-01-25T01:24:01.210Z,100316.06
2023-01-25T01:26:28.164Z,100318.72
2023-01-25T01:28:55.107Z,100326.91
2023-01-25T01:31:24.559Z,100317.69
2023-01-25T01:33:54.071Z,100294.41
2023-01-25T01:36:22.817Z,100298.28
2023-01-25T01:38:49.928Z,100298.66
2023-01-25T01:41:17.706Z,100297.41
2023-01-25T01:43:45.285Z,100297.41
2023-01-25T01:46:20.498Z,100288.66
2023-01-25T01:49:09.597Z,100288.06
2023-01-25T01:51:46.424Z,100273.41
2023-01-25T01:54:20.667Z,100273.22
2023-01-25T01:57:10.842Z,100266.84
2023-01-25T02:00:00.442Z,100259.81
2023-01-25T02:02:27.577Z,100214.09
2023-01-25T02:05:00.602Z,100261.22
2023-01-25T02:07:50.504Z,100269.59
2023-01-25T02:10:40.030Z,100257.69
2023-01-25T02:13:24.714Z,100254.34
2023-01-25T02:16:10.248Z,100259.16
2023-01-25T02:18:56.906Z,100247.75
2023-01-25T02:21:51.772Z,100250.56
2023-01-25T02:24:44.765Z,100215.44
2023-01-25T02:27:11.755Z,100249.53
2023-01-25T02:29:39.881Z,100245.69
2023-01-25T02:32:07.412Z,100252.50
2023-01-25T02:34:35.918Z,100243.00
2023-01-25T02:37:03.306Z,100240.50
2023-01-25T02:39:30.648Z,100247.97
2023-01-25T02:41:57.597Z,100250.34
2023-01-25T02:44:33.397Z,100261.84
2023-01-25T02:47:01.134Z,100253.66
2023-01-25T02:49:28.077Z,100247.78
2023-01-25T02:51:57.626Z,100262.22
2023-01-25T02:54:26.458Z,100255.38
2023-01-25T02:56:53.687Z,100252.72
2023-01-25T02:59:20.600Z,100249.09
2023-01-25T03:01:48.079Z,100228.56
2023-01-25T03:04:15.173Z,100249.50
2023-01-25T03:06:42.439Z,100241.50
2023-01-25T03:09:11.358Z,100244.63
2023-01-25T03:11:38.304Z,100252.72
2023-01-25T03:14:05.572Z,100249.84
2023-01-25T03:16:32.812Z,100209.38
2023-01-25T03:18:59.845Z,100232.91
2023-01-25T03:21:26.965Z,100239.97
2023-01-25T03:24:02.414Z,100250.97
2023-01-25T03:26:29.911Z,100238.03
2023-01-25T03:28:56.813Z,100246.78
2023-01-25T03:31:23.999Z,100226.81
2023-01-25T03:33:51.104Z,100244.38
2023-01-25T03:36:18.163Z,100244.25
2023-01-25T03:38:45.161Z,100235.97
2023-01-25T03:41:13.938Z,100234.06
2023-01-25T03:43:41.007Z,100236.63
2023-01-25T03:46:07.929Z,100243.66
2023-01-25T03:48:34.861Z,100235.56
2023-01-25T03:51:01.822Z,100233.66
2023-01-25T03:53:30.441Z,100233.22
2023-01-25T03:55:58.660Z,100231.31
2023-01-25T03:58:26.136Z,100222.78
2023-01-25T04:00:56.144Z,100212.50
2023-01-25T04:03:23.422Z,100232.75
2023-01-25T04:05:50.925Z,100207.19
2023-01-25T04:08:18.087Z,100218.94
2023-01-25T04:10:45.945Z,100212.84
2023-01-25T04:13:12.830Z,100209.44
2023-01-25T04:15:39.782Z,100204.66
2023-01-25T04:18:06.649Z,100200.16
2023-01-25T04:20:33.658Z,100200.28
2023-01-25T04:23:01.566Z,100194.66
2023-01-25T04:25:28.551Z,100168.16
2023-01-25T04:27:55.480Z,100198.59
2023-01-25T04:30:22.434Z,100205.06
2023-01-25T04:32:49.645Z,100206.47
2023-01-25T04:35:16.849Z,100194.03
2023-01-25T04:37:43.766Z,100196.47
2023-01-25T04:40:11.081Z,100198.91
2023-01-25T04:42:38.107Z,100194.34
2023-01-25T04:45:05.726Z,100181.75
2023-01-25T04:47:32.659Z,100190.75
2023-01-25T04:49:59.614Z,100188.53
2023-01-25T04:52:26.646Z,100176.72
2023-01-25T04:54:53.532Z,100183.38
2023-01-25T04:57:20.441Z,100186.75
2023-01-25T04:59:47.329Z,100188.78
2023-01-25T05:02:14.361Z,100180.16
2023-01-25T05:04:41.393Z,100184.59
2023-01-25T05:07:08.393Z,100176.47
2023-01-25T05:09:35.308Z,100174.38
2023-01-25T05:12:02.239Z,100134.47
2023-01-25T05:14:29.201Z,100175.22
2023-01-25T05:16:56.173Z,100174.81
2023-01-25T05:19:23.199Z,100174.59
2023-01-25T05:21:59.385Z,100130.97
2023-01-25T05:24:30.747Z,100170.88
2023-01-25T05:27:01.751Z,100161.06
2023-01-25T05:29:29.384Z,100162.78
2023-01-25T05:31:56.489Z,100165.44
2023-01-25T05:34:23.694Z,100163.41
2023-01-25T05:36:50.618Z,100167.00
2023-01-25T05:39:17.535Z,100164.97
2023-01-25T05:41:44.615Z,100161.34
2023-01-25T05:44:11.593Z,100164.03
2023-01-25T05:46:38.474Z,100162.81
2023-01-25T05:49:05.846Z,100158.56
2023-01-25T05:51:33.329Z,100151.88
2023-01-25T05:54:00.326Z,100120.41
2023-01-25T05:56:27.412Z,100158.97
2023-01-25T05:58:55.618Z,100168.53
2023-01-25T06:01:22.605Z,100161.66
2023-01-25T06:03:49.611Z,100133.09
2023-01-25T06:06:16.817Z,100160.19
2023-01-25T06:08:43.802Z,100169.81
2023-01-25T06:11:17.123Z,100161.59
2023-01-25T06:13:45.250Z,100166.84
2023-01-25T06:16:12.627Z,100162.66
2023-01-25T06:18:39.821Z,100163.31
2023-01-25T06:21:07.251Z,100168.00
2023-01-25T06:23:34.192Z,100163.81
2023-01-25T06:26:03.864Z,100164.78
2023-01-25T06:28:32.566Z,100162.66
2023-01-25T06:31:17.767Z,100159.78
2023-01-25T06:33:48.985Z,100160.00
2023-01-25T06:36:18.925Z,100157.97
2023-01-25T06:38:53.541Z,100155.81
2023-01-25T06:41:20.784Z,100156.50
2023-01-25T06:43:50.136Z,100150.50
2023-01-25T06:46:17.300Z,100147.19
2023-01-25T06:48:44.567Z,100154.53
2023-01-25T06:51:13.783Z,100147.94
2023-01-25T06:53:43.850Z,100146.03
2023-01-25T06:56:13.877Z,100131.50
2023-01-25T06:58:41.562Z,100140.28
2023-01-25T07:01:20.145Z,100142.41
2023-01-25T07:03:53.372Z,100145.53
2023-01-25T07:06:20.803Z,100135.41
2023-01-25T07:08:48.340Z,100141.25
2023-01-25T07:11:16.293Z,100131.25
2023-01-25T07:13:47.875Z,100136.38
2023-01-25T07:16:23.707Z,100134.56
2023-01-25T07:18:50.568Z,100136.06
2023-01-25T07:21:23.028Z,100127.84
2023-01-25T07:23:51.453Z,100133.94
2023-01-25T07:26:26.253Z,100128.38
2023-01-25T07:28:56.071Z,100119.44
2023-01-25T07:31:23.684Z,100112.63
2023-01-25T07:33:52.196Z,100121.16
2023-01-25T07:36:19.757Z,100085.84
2023-01-25T07:38:46.877Z,100115.59
2023-01-25T07:41:14.837Z,100110.25
2023-01-25T07:43:42.667Z,100110.03
2023-01-25T07:46:12.037Z,100104.72
2023-01-25T07:48:40.663Z,100103.75
2023-01-25T07:51:13.264Z,100112.63
2023-01-25T07:53:41.709Z,100110.81
2023-01-25T07:56:10.900Z,100119.66
2023-01-25T07:58:38.025Z,100113.69
2023-01-25T08:01:12.449Z,100117.31
2023-01-25T08:03:40.032Z,100093.44
2023-01-25T08:06:08.000Z,100108.47
2023-01-25T08:08:37.244Z,100100.47
2023-01-25T08:11:17.071Z,100100.78
2023-01-25T08:13:47.474Z,100106.44
2023-01-25T08:16:16.692Z,100097.59
2023-01-25T08:18:43.946Z,100091.72
2023-01-25T08:21:10.839Z,100093.97
2023-01-25T08:23:37.772Z,100089.16
2023-01-25T08:26:07.854Z,100090.84
2023-01-25T08:28:35.973Z,100081.91
2023-01-25T08:31:21.933Z,100086.28
2023-01-25T08:33:49.623Z,100081.47
2023-01-25T08:36:19.836Z,100082.22
2023-01-25T08:38:48.067Z,100080.22
2023-01-25T08:41:18.012Z,100079.13
2023-01-25T08:43:45.950Z,100074.41
2023-01-25T08:46:15.918Z,100076.38
2023-01-25T08:48:42.850Z,100076.13
2023-01-25T08:51:13.135Z,100070.72
2023-01-25T08:53:40.325Z,100069.75
2023-01-25T08:56:12.425Z,100071.13
2023-01-25T08:58:41.981Z,100063.56
2023-01-25T09:01:11.815Z,100076.47
2023-01-25T09:03:40.837Z,100075.28
2023-01-25T09:06:09.154Z,100074.31
2023-01-25T09:08:36.613Z,100075.94
2023-01-25T09:11:05.439Z,100072.97
2023-01-25T09:13:32.559Z,100075.09
2023-01-25T09:16:07.960Z,100071.25
2023-01-25T09:18:36.556Z,100064.13
2023-01-25T09:21:21.881Z,100066.44
2023-01-25T09:24:04.556Z,100059.50
2023-01-25T09:26:37.739Z,100062.25
2023-01-25T09:29:04.832Z,100017.91
2023-01-25T09:31:31.921Z,100045.41
2023-01-25T09:33:58.967Z,100042.50
2023-01-25T09:36:25.990Z,100039.59
2023-01-25T09:38:53.473Z,100037.91
2023-01-25T09:41:20.341Z,100034.78
2023-01-25T09:44:14.581Z,100024.88
2023-01-25T09:46:45.582Z,100021.00
2023-01-25T09:49:48.226Z,100014.75
2023-01-25T09:52:23.941Z,100015.78
2023-01-25T09:54:51.947Z,100007.56
2023-01-25T09:57:33.068Z,99995.69
2023-01-25T10:00:08.408Z,99997.44
2023-01-25T10:02:53.274Z,99990.22
2023-01-25T10:05:27.444Z,99990.13
2023-01-25T10:08:36.309Z,100000.91
2023-01-25T10:11:24.863Z,99993.81
2023-01-25T10:13:52.229Z,99989.78
2023-01-25T10:16:28.206Z,99990.53
2023-01-25T10:19:27.339Z,99970.63
2023-01-25T10:22:01.444Z,99968.41
2023-01-25T10:24:43.913Z,99968.44
2023-01-25T10:27:58.743Z,99968.94
2023-01-25T10:30:30.096Z,99957.94
2023-01-25T10:33:07.666Z,99962.25
2023-01-25T10:35:42.758Z,99932.78
2023-01-25T10:38:45.641Z,99948.56
2023-01-25T10:41:17.058Z,99956.94
2023-01-25T10:43:44.041Z,99948.41
2023-01-25T10:46:23.042Z,99949.91
2023-01-25T10:48:50.003Z,99942.16
2023-01-25T10:51:35.699Z,99942.38
2023-01-25T10:54:05.096Z,99936.56
2023-01-25T10:56:39.608Z,99930.28
2023-01-25T10:59:16.583Z,99928.59
2023-01-25T11:01:43.837Z,99914.59
2023-01-25T11:04:31.699Z,99913.25
2023-01-25T11:07:00.075Z,99906.50
2023-01-25T11:09:29.908Z,99903.78
2023-01-25T11:11:59.987Z,99906.25
2023-01-25T11:14:29.764Z,99899.19
2023-01-25T11:16:58.567Z,99907.94
2023-01-25T11:19:36.011Z,99890.94
2023-01-25T11:22:07.104Z,99897.03
2023-01-25T11:24:36.144Z,99892.69
2023-01-25T11:27:18.377Z,99875.81
2023-01-25T11:29:47.315Z,99868.16
2023-01-25T11:32:22.964Z,99866.19
2023-01-25T11:34:51.641Z,99869.38
2023-01-25T11:37:21.130Z,99865.22
2023-01-25T11:40:03.528Z,99850.16
2023-01-25T11:43:03.929Z,99837.09
2023-01-25T11:46:05.049Z,99840.34
2023-01-25T11:48:43.831Z,99834.13
2023-01-25T11:51:25.911Z,99834.50
2023-01-25T11:54:29.633Z,99834.13
2023-01-25T11:57:13.076Z,99840.34
2023-01-25T11:59:59.877Z,99840.00
2023-01-25T12:02:53.689Z,99826.84
2023-01-25T12:05:35.807Z,99773.81
2023-01-25T12:08:11.946Z,99817.88
2023-01-25T12:11:05.815Z,99808.69
2023-01-25T12:14:11.749Z,99806.00
2023-01-25T12:16:56.614Z,99778.09
2023-01-25T12:19:35.763Z,99799.19
2023-01-25T12:22:24.103Z,99802.34
2023-01-25T12:25:14.400Z,99796.66
2023-01-25T12:27:50.614Z,99785.13
2023-01-25T12:30:37.120Z,99786.69
2023-01-25T12:33:15.005Z,99791.03
2023-01-25T12:35:59.921Z,99790.03
2023-01-25T12:38:29.412Z,99787.34
2023-01-25T12:41:08.652Z,99779.03
2023-01-25T12:44:19.676Z,99781.97
2023-01-25T12:46:49.481Z,99773.59
2023-01-25T12:49:26.322Z,99763.78
2023-01-25T12:51:56.533Z,99768.03
2023-01-25T12:54:31.054Z,99759.75
2023-01-25T12:57:11.959Z,99756.25
2023-01-25T12:59:57.381Z,99757.72
2023-01-25T13:02:49.721Z,99733.44
2023-01-25T13:05:22.774Z,99755.88
2023-01-25T13:08:30.181Z,99760.03
2023-01-25T13:11:10.807Z,99711.72
2023-01-25T13:13:37.802Z,99739.41
2023-01-25T13:16:36.781Z,99745.44
2023-01-25T13:19:03.967Z,99735.25
2023-01-25T13:21:41.767Z,99740.34
2023-01-25T13:24:13.976Z,99731.13
2023-01-25T13:26:55.968Z,99721.44
2023-01-25T13:29:47.415Z,99714.91
2023-01-25T13:32:34.192Z,99712.47
2023-01-25T13:35:02.026Z,99717.31
2023-01-25T13:37:31.119Z,99716.47
2023-01-25T13:40:07.540Z,99716.22
2023-01-25T13:42:39.044Z,99720.06
2023-01-25T13:45:20.577Z,99704.81
2023-01-25T13:48:11.559Z,99715.47
2023-01-25T13:50:45.764Z,99717.66
2023-01-25T13:53:15.406Z,99699.94
2023-01-25T13:55:46.672Z,99692.66
2023-01-25T13:58:26.476Z,99702.09
2023-01-25T14:00:59.879Z,99686.59
2023-01-25T14:03:31.310Z,99696.16
2023-01-25T14:06:02.711Z,99691.06
2023-01-25T14:08:31.261Z,99694.09
2023-01-25T14:10:58.692Z,99668.38
2023-01-25T14:13:25.970Z,99679.84
2023-01-25T14:15:55.717Z,99670.63
2023-01-25T14:18:28.219Z,99670.47
2023-01-25T14:21:16.322Z,99683.59
2023-01-25T14:23:43.749Z,99668.06
2023-01-25T14:26:32.327Z,99674.72
2023-01-25T14:29:01.947Z,99684.88
2023-01-25T14:31:36.290Z,99654.22
2023-01-25T14:34:05.226Z,99665.88
2023-01-25T14:36:34.924Z,99668.63
2023-01-25T14:39:03.895Z,99669.38
2023-01-25T14:41:48.749Z,99666.72
2023-01-25T14:44:26.659Z,99659.28
2023-01-25T14:47:20.907Z,99633.09
2023-01-25T14:49:47.836Z,99662.94
2023-01-25T14:52:19.686Z,99660.84
2023-01-25T14:54:56.701Z,99663.72
2023-01-25T14:57:41.310Z,99662.75
2023-01-25T15:00:17.342Z,99623.84
2023-01-25T15:02:56.808Z,99652.00
2023-01-25T15:05:29.514Z,99647.78
2023-01-25T15:07:59.017Z,99600.72
2023-01-25T15:10:31.506Z,99638.44
2023-01-25T15:13:11.602Z,99631.28
2023-01-25T15:15:58.100Z,99630.56
2023-01-25T15:18:43.751Z,99626.91
2023-01-25T15:21:16.518Z,99625.81
2023-01-25T15:23:45.584Z,99622.44
2023-01-25T15:26:21.311Z,99619.78
2023-01-25T15:28:49.869Z,99612.63
2023-01-25T15:31:19.565Z,99625.59
2023-01-25T15:33:47.259Z,99627.00
2023-01-25T15:36:15.297Z,99630.38
2023-01-25T15:38:42.616Z,99623.69
2023-01-25T15:41:10.574Z,99592.41
2023-01-25T15:43:37.548Z,99620.69
2023-01-25T15:46:06.672Z,99623.25
2023-01-25T15:48:38.111Z,99616.00
2023-01-25T15:51:05.224Z,99613.56
2023-01-25T15:53:32.412Z,99596.34
2023-01-25T15:56:04.269Z,99612.47
2023-01-25T15:58:34.990Z,99601.69
2023-01-25T16:01:02.304Z,99604.59
2023-01-25T16:03:30.126Z,99598.19
2023-01-25T16:06:21.975Z,99598.19
2023-01-25T16:08:48.881Z,99594.19
2023-01-25T16:11:15.782Z,99593.50
2023-01-25T16:13:42.684Z,99588.88
2023-01-25T16:16:19.401Z,99549.13
2023-01-25T16:18:46.748Z,99570.38
2023-01-25T16:21:14.013Z,99575.81
2023-01-25T16:23:41.037Z,99588.16
2023-01-25T16:26:28.938Z,99584.50
2023-01-25T16:28:56.218Z,99573.13
2023-01-25T16:31:32.251Z,99577.50
2023-01-25T16:34:00.882Z,99577.28
2023-01-25T16:36:28.550Z,99567.06
2023-01-25T16:38:55.550Z,99548.63
2023-01-25T16:41:22.801Z,99561.88
2023-01-25T16:43:49.813Z,99541.13
2023-01-25T16:46:22.573Z,99524.66
2023-01-25T16:48:55.278Z,99554.47
2023-01-25T16:51:27.441Z,99548.63
2023-01-25T16:53:56.403Z,99550.81
2023-01-25T16:56:26.180Z,99525.81
2023-01-25T16:58:55.008Z,99530.69
2023-01-25T17:01:24.131Z,99535.06
2023-01-25T17:03:51.988Z,99534.31
2023-01-25T17:06:21.340Z,99529.00
2023-01-25T17:08:49.291Z,99527.56
2023-01-25T17:11:21.827Z,99518.25
2023-01-25T17:13:53.473Z,99522.72
2023-01-25T17:16:21.905Z,99536.31
2023-01-25T17:18:53.535Z,99511.47
2023-01-25T17:21:21.426Z,99526.97
2023-01-25T17:23:49.028Z,99523.97
2023-01-25T17:26:17.959Z,99517.06
2023-01-25T17:28:45.442Z,99519.84
2023-01-25T17:31:22.376Z,99514.50
2023-01-25T17:33:50.306Z,99511.75
2023-01-25T17:36:17.594Z,99500.94
2023-01-25T17:38:44.873Z,99501.44
2023-01-25T17:41:14.365Z,99494.91
2023-01-25T17:43:41.879Z,99496.34
2023-01-25T17:46:20.347Z,99486.78
2023-01-25T17:48:48.439Z,99474.66
2023-01-25T17:51:15.478Z,99438.31
2023-01-25T17:53:42.559Z,99486.75
2023-01-25T17:56:11.340Z,99488.28
2023-01-25T17:58:39.921Z,99489.59
2023-01-25T18:01:18.785Z,99465.31
2023-01-25T18:03:47.099Z,99482.03
2023-01-25T18:06:17.127Z,99481.31
2023-01-25T18:08:49.877Z,99467.91
2023-01-25T18:11:20.430Z,99471.38
2023-01-25T18:13:49.943Z,99465.34
2023-01-25T18:16:22.558Z,99457.13
2023-01-25T18:18:51.201Z,99468.72
2023-01-25T18:21:25.789Z,99457.81
2023-01-25T18:23:55.509Z,99461.34
2023-01-25T18:26:27.997Z,99457.59
2023-01-25T18:28:59.359Z,99451.28
2023-01-25T18:31:26.718Z,99449.72
2023-01-25T18:33:53.803Z,99441.63
2023-01-25T18:36:20.865Z,99441.50
2023-01-25T18:38:47.790Z,99437.50
2023-01-25T18:41:15.728Z,99435.19
2023-01-25T18:43:42.723Z,99439.69
2023-01-25T18:46:10.161Z,99423.72
2023-01-25T18:48:37.167Z,99433.50
2023-01-25T18:51:13.122Z,99428.00
2023-01-25T18:53:42.444Z,99441.28
2023-01-25T18:56:15.518Z,99428.09
2023-01-25T18:58:42.865Z,99432.81
2023-01-25T19:01:09.717Z,99423.41
2023-01-25T19:03:37.047Z,99398.59
2023-01-25T19:06:04.766Z,99411.56
2023-01-25T19:08:41.582Z,99417.13
2023-01-25T19:11:13.899Z,99415.19
2023-01-25T19:13:42.105Z,99411.19
2023-01-25T19:16:13.729Z,99403.66
2023-01-25T19:18:47.321Z,99413.25
2023-01-25T19:21:17.407Z,99406.97
2023-01-25T19:23:44.591Z,99406.47
2023-01-25T19:26:17.498Z,99395.38
2023-01-25T19:28:45.117Z,99393.56
2023-01-25T19:31:14.021Z,99397.06
2023-01-25T19:33:41.673Z,99391.97
2023-01-25T19:36:15.597Z,99390.72
2023-01-25T19:38:43.442Z,99383.22
2023-01-25T19:41:19.607Z,99381.03
2023-01-25T19:43:47.197Z,99380.41
2023-01-25T19:46:16.847Z,99372.81
2023-01-25T19:48:45.278Z,99375.34
2023-01-25T19:51:13.938Z,99380.09
2023-01-25T19:53:46.606Z,99360.44
2023-01-25T19:56:18.079Z,99376.41
2023-01-25T19:58:46.437Z,99376.41
2023-01-25T20:01:16.330Z,99377.66
2023-01-25T20:03:44.031Z,99375.72
2023-01-25T20:06:12.516Z,99374.25
2023-01-25T20:08:41.692Z,99363.88
2023-01-25T20:11:13.204Z,99330.09
2023-01-25T20:13:41.073Z,99370.28
2023-01-25T20:16:09.290Z,99363.88
2023-01-25T20:18:36.893Z,99360.25
2023-01-25T20:21:06.655Z,99356.16
2023-01-25T20:23:38.521Z,99353.84
2023-01-25T20:26:09.282Z,99358.09
2023-01-25T20:28:37.248Z,99351.94
2023-01-25T20:31:05.181Z,99307.28
2023-01-25T20:33:35.826Z,99344.41
2023-01-25T20:36:05.775Z,99344.91
2023-01-25T20:38:34.212Z,99348.91
2023-01-25T20:41:03.316Z,99333.41
2023-01-25T20:43:31.621Z,99349.75
2023-01-25T20:46:00.202Z,99339.84
2023-01-25T20:48:28.684Z,99326.16
2023-01-25T20:51:06.284Z,99344.50
2023-01-25T20:53:34.540Z,99339.94
2023-01-25T20:56:01.483Z,99324.03
2023-01-25T20:58:28.820Z,99333.75
2023-01-25T21:00:56.176Z,99324.34
2023-01-25T21:03:23.653Z,99320.47
2023-01-25T21:05:56.429Z,99333.53
2023-01-25T21:08:24.783Z,99321.56
2023-01-25T21:10:54.103Z,99323.00
2023-01-25T21:13:22.673Z,99317.81
2023-01-25T21:16:22.726Z,99317.41
2023-01-25T21:18:57.955Z,99303.81
2023-01-25T21:21:30.225Z,99313.41
2023-01-25T21:24:00.272Z,99302.63
2023-01-25T21:26:29.807Z,99302.56
2023-01-25T21:28:58.507Z,99309.09
2023-01-25T21:31:28.225Z,99260.97
2023-01-25T21:33:55.895Z,99300.31
2023-01-25T21:36:23.360Z,99294.13
2023-01-25T21:38:52.205Z,99306.81
2023-01-25T21:41:20.537Z,99301.25
2023-01-25T21:44:06.810Z,99295.47
2023-01-25T21:46:34.028Z,99298.84
2023-01-25T21:49:21.535Z,99295.84
2023-01-25T21:51:51.262Z,99291.59
2023-01-25T21:54:30.432Z,99287.94
2023-01-25T21:56:58.984Z,99286.63
2023-01-25T21:59:25.937Z,99278.25
2023-01-25T22:01:54.464Z,99283.47
2023-01-25T22:04:23.271Z,99283.59
2023-01-25T22:06:52.747Z,99274.66
2023-01-25T22:09:19.655Z,99280.22
2023-01-25T22:11:46.979Z,99279.44
2023-01-25T22:14:17.188Z,99274.59
2023-01-25T22:16:44.108Z,99267.81
2023-01-25T22:19:11.242Z,99268.44
2023-01-25T22:21:38.236Z,99251.03
2023-01-25T22:24:06.080Z,99232.78
2023-01-25T22:27:21.761Z,99260.41
2023-01-25T22:29:48.684Z,99264.75
2023-01-25T22:32:15.579Z,99264.38
2023-01-25T22:34:42.500Z,99259.28
2023-01-25T22:37:12.074Z,99262.53
2023-01-25T22:39:39.063Z,99258.44
2023-01-25T22:42:06.129Z,99270.31
2023-01-25T22:44:33.067Z,99266.81
2023-01-25T22:46:59.935Z,99263.91
2023-01-25T22:49:26.838Z,99262.22
2023-01-25T22:51:53.698Z,99216.72
2023-01-25T22:54:20.761Z,99252.44
2023-01-25T22:56:47.713Z,99250.75
2023-01-25T22:59:19.191Z,99247.16
2023-01-25T23:01:46.591Z,99247.53
2023-01-25T23:04:13.639Z,99244.41
2023-01-25T23:06:40.578Z,99235.47
2023-01-25T23:09:07.603Z,99226.91
2023-01-25T23:11:37.691Z,99229.09
2023-01-25T23:14:26.073Z,99221.09
2023-01-25T23:16:53.304Z,99211.09
2023-01-25T23:19:20.239Z,99199.25
2023-01-25T23:21:47.198Z,99205.78
2023-01-25T23:24:14.145Z,99208.56
2023-01-25T23:26:46.712Z,99200.34
2023-01-25T23:29:14.684Z,99199.50
2023-01-25T23:31:41.749Z,99200.00
2023-01-25T23:34:08.886Z,99190.81
2023-01-25T23:36:42.551Z,99183.53
2023-01-25T23:39:13.320Z,99177.63
2023-01-25T23:41:40.672Z,99180.19
2023-01-25T23:44:07.803Z,99179.91
2023-01-25T23:46:34.812Z,99171.72
2023-01-25T23:49:01.868Z,99177.88
2023-01-25T23:51:28.794Z,99170.00
2023-01-25T23:53:57.888Z,99171.69
2023-01-25T23:56:24.933Z,99171.84
2023-01-25T23:58:51.922Z,99168.22
